Time;durP1;ratioP1;P1;durP2;ratioP2;P2;SDS_P1;SDS_P2;PMS_P1;PMS_P2;Temp;Humidity;BMP_temperature;BMP_pressure;BME280_temperature;BME280_humidity;BME280_pressure;Samples;Min_cycle;Max_cycle;Signal;HPM_P1;HPM_P2
2023/11/06 00:02:16;;;;;;;2.00;1.00;;;;;;;11.45;69.29;98691.31;5058918;28;20205;-71
2023/11/06 00:04:43;;;;;;;2.40;0.90;;;;;;;11.47;69.59;98694.34;5053751;28;20234;-71
2023/11/06 00:07:10;;;;;;;1.20;0.83;;;;;;;11.45;71.10;98693.22;5056434;28;20199;-72
2023/11/06 00:09:37;;;;;;;3.43;1.10;;;;;;;11.45;68.14;98698.50;5058343;28;20228;-72
2023/11/06 00:12:04;;;;;;;1.50;1.00;;;;;;;11.44;69.70;98705.66;5053168;28;20688;-72
2023/11/06 00:14:30;;;;;;;1.33;1.00;;;;;;;11.44;69.31;98707.56;5057207;28;20225;-72
2023/11/06 00:16:56;;;;;;;6.43;1.20;;;;;;;11.41;70.44;98716.25;5056671;28;20213;-72
2023/11/06 00:19:23;;;;;;;2.10;0.90;;;;;;;11.41;67.27;98724.94;5039340;28;20690;-72
2023/11/06 00:21:49;;;;;;;2.07;1.07;;;;;;;11.39;70.97;98724.53;5038624;28;20598;-71
2023/11/06 00:24:17;;;;;;;1.53;0.90;;;;;;;11.38;68.59;98741.53;5073119;22;20265;-70
2023/11/06 00:26:45;;;;;;;0.77;0.70;;;;;;;11.34;68.93;98732.81;5050719;28;20211;-68
2023/11/06 00:29:12;;;;;;;1.67;0.73;;;;;;;11.35;68.17;98726.44;5051014;28;20507;-70
2023/11/06 00:31:39;;;;;;;2.23;0.90;;;;;;;11.34;68.55;98751.31;5035038;28;20218;-70
2023/11/06 00:34:05;;;;;;;1.23;1.00;;;;;;;11.33;68.95;98757.00;5052843;28;20229;-70
2023/11/06 00:36:31;;;;;;;1.27;0.70;;;;;;;11.33;70.80;98757.75;5035292;28;20213;-69
2023/11/06 00:38:58;;;;;;;1.33;0.97;;;;;;;11.30;70.47;98763.78;5051648;28;20221;-70
2023/11/06 00:41:25;;;;;;;3.83;1.00;;;;;;;11.27;69.93;98759.25;5038059;28;20209;-70
2023/11/06 00:43:52;;;;;;;4.73;1.00;;;;;;;11.28;72.52;98765.28;5031571;28;20521;-70
2023/11/06 00:46:19;;;;;;;4.73;1.23;;;;;;;11.24;68.98;98773.19;5036377;28;20225;-71
2023/11/06 00:48:45;;;;;;;2.07;0.90;;;;;;;11.25;69.71;98777.38;5047197;28;20357;-69
2023/11/06 00:51:12;;;;;;;1.57;0.93;;;;;;;11.25;69.23;98777.38;5048283;28;20214;-70
2023/11/06 00:53:39;;;;;;;4.73;1.10;;;;;;;11.25;70.24;98782.66;5036895;28;20812;-68
2023/11/06 00:56:06;;;;;;;2.30;1.03;;;;;;;11.24;69.78;98785.66;5051527;28;23104;-70
2023/11/06 00:58:34;;;;;;;1.73;0.93;;;;;;;11.23;70.70;98786.78;5055812;28;20297;-70
2023/11/06 01:01:00;;;;;;;2.57;0.90;;;;;;;11.21;68.46;98789.78;5037145;28;20577;-68
2023/11/06 01:03:27;;;;;;;2.63;1.00;;;;;;;11.18;70.87;98787.88;5033215;28;20205;-70
2023/11/06 01:05:53;;;;;;;2.57;1.07;;;;;;;11.19;69.23;98789.41;5052802;28;20209;-70
2023/11/06 01:08:19;;;;;;;2.50;1.03;;;;;;;11.19;69.95;98799.22;5051696;28;20209;-70
2023/11/06 01:10:45;;;;;;;1.03;0.90;;;;;;;11.19;71.49;98797.31;5056440;28;20722;-70
2023/11/06 01:13:13;;;;;;;3.60;1.40;;;;;;;11.16;68.25;98800.72;5050060;28;20565;-69
2023/11/06 01:15:42;;;;;;;2.73;1.00;;;;;;;11.15;69.94;98807.13;5052216;28;20233;-70
2023/11/06 01:18:09;;;;;;;3.07;0.90;;;;;;;11.12;69.78;98805.22;5035603;28;20245;-70
2023/11/06 01:20:35;;;;;;;2.07;0.93;;;;;;;11.12;73.23;98815.06;5057232;28;20222;-69
2023/11/06 01:23:02;;;;;;;1.40;0.80;;;;;;;11.09;71.20;98826.34;5033770;28;20220;-70
2023/11/06 01:25:29;;;;;;;2.40;1.00;;;;;;;11.06;69.50;98819.16;5035989;28;20233;-70
2023/11/06 01:27:55;;;;;;;1.00;0.80;;;;;;;11.05;72.72;98833.50;5052640;28;20210;-70
2023/11/06 01:30:21;;;;;;;2.20;0.87;;;;;;;11.02;71.53;98839.53;5035119;28;20226;-70
2023/11/06 01:32:49;;;;;;;2.00;0.87;;;;;;;11.05;70.56;98850.09;5052448;28;20216;-68
2023/11/06 01:35:19;;;;;;;2.20;1.00;;;;;;;11.03;69.51;98846.31;5056696;28;20253;-71
2023/11/06 01:37:46;;;;;;;2.13;1.00;;;;;;;11.04;68.97;98853.88;5036162;28;20213;-70
2023/11/06 01:40:13;;;;;;;1.77;0.77;;;;;;;11.04;70.91;98848.59;5052899;28;20732;-70
2023/11/06 01:42:40;;;;;;;2.13;0.80;;;;;;;11.04;73.05;98853.88;5054741;28;20690;-70
2023/11/06 01:45:07;;;;;;;1.60;0.70;;;;;;;11.04;70.37;98853.13;5040363;28;20235;-70
2023/11/06 01:47:35;;;;;;;2.27;0.87;;;;;;;11.04;70.50;98861.03;5055220;28;20221;-70
2023/11/06 01:50:05;;;;;;;0.97;0.80;;;;;;;11.03;69.98;98862.16;5033719;28;20242;-70
2023/11/06 01:52:31;;;;;;;1.27;1.00;;;;;;;11.03;69.53;98868.19;5038893;28;20216;-68
2023/11/06 01:54:59;;;;;;;1.57;0.90;;;;;;;11.03;71.63;98870.09;5043648;28;20260;-69
2023/11/06 01:57:26;;;;;;;2.70;0.97;;;;;;;11.00;69.57;98879.50;5057122;28;20227;-70
2023/11/06 01:59:53;;;;;;;2.63;0.90;;;;;;;11.00;69.43;98876.09;5033201;28;20220;-70
2023/11/06 02:02:23;;;;;;;2.43;0.70;;;;;;;11.00;71.19;98889.31;5035925;28;20667;-69
2023/11/06 02:04:49;;;;;;;1.53;0.93;;;;;;;10.98;71.72;98886.28;5030677;28;20235;-69
2023/11/06 02:07:17;;;;;;;3.03;0.67;;;;;;;10.97;70.67;98890.06;5034566;28;20213;-71
2023/11/06 02:09:44;;;;;;;1.47;0.73;;;;;;;10.95;71.20;98879.09;5038998;28;21059;-70
2023/11/06 02:12:11;;;;;;;2.07;0.80;;;;;;;10.94;70.75;98903.97;5032775;28;20777;-70
2023/11/06 02:14:49;;;;;;;2.10;0.90;;;;;;;10.90;71.29;98890.00;5032756;28;20237;-70
2023/11/06 02:17:15;;;;;;;1.17;0.80;;;;;;;10.88;70.85;98910.75;5030270;28;20564;-70
2023/11/06 02:19:41;;;;;;;1.33;0.80;;;;;;;10.79;69.62;98910.28;5035321;28;20216;-69
2023/11/06 02:22:09;;;;;;;1.57;0.70;;;;;;;10.75;70.69;98909.50;5035564;28;20210;-70
2023/11/06 02:24:37;;;;;;;1.70;0.97;;;;;;;10.69;73.17;98911.75;5033684;28;20238;-70
2023/11/06 02:27:04;;;;;;;2.10;1.00;;;;;;;10.64;69.64;98927.91;5032187;28;20218;-69
2023/11/06 02:29:30;;;;;;;1.67;0.80;;;;;;;10.58;72.86;98928.59;5031214;28;20211;-70
2023/11/06 02:31:57;;;;;;;3.40;1.00;;;;;;;10.51;71.80;98934.56;5048638;28;20701;-70
2023/11/06 02:34:24;;;;;;;1.40;0.83;;;;;;;10.46;71.38;98937.53;5050274;28;20242;-69
2023/11/06 02:36:50;;;;;;;1.97;0.83;;;;;;;10.41;71.21;98943.16;5038170;28;20208;-70
2023/11/06 02:39:16;;;;;;;1.63;1.00;;;;;;;10.35;71.75;98941.97;5057379;28;20215;-70
2023/11/06 02:41:44;;;;;;;1.70;0.70;;;;;;;10.30;72.91;98947.56;5052903;28;20208;-70
2023/11/06 02:44:11;;;;;;;1.37;0.77;;;;;;;10.26;75.26;98948.66;5031281;28;20230;-70
2023/11/06 02:46:38;;;;;;;1.63;0.80;;;;;;;10.22;72.64;98963.69;5035344;28;20245;-70
2023/11/06 02:49:04;;;;;;;0.90;0.80;;;;;;;10.15;72.32;98961.00;5050857;28;20218;-70
2023/11/06 02:51:31;;;;;;;3.50;0.90;;;;;;;10.11;73.41;98973.38;5049833;28;20708;-70
2023/11/06 02:53:57;;;;;;;0.70;0.70;;;;;;;10.06;73.37;98966.56;5035787;28;20245;-68
2023/11/06 02:56:24;;;;;;;2.70;0.90;;;;;;;9.98;73.13;98975.47;5034775;28;20207;-70
2023/11/06 02:58:52;;;;;;;1.03;0.77;;;;;;;9.94;74.29;98982.56;5036574;28;20652;-70
2023/11/06 03:01:19;;;;;;;2.20;0.90;;;;;;;9.92;75.51;98991.94;5033582;28;20661;-70
2023/11/06 03:03:45;;;;;;;1.63;0.90;;;;;;;9.88;73.63;98999.09;5044169;28;20214;-70
2023/11/06 03:06:12;;;;;;;4.63;0.90;;;;;;;9.83;74.81;99002.03;5052281;28;22423;-70
2023/11/06 03:08:38;;;;;;;2.17;0.90;;;;;;;9.79;74.79;99001.97;5055114;28;20210;-70
2023/11/06 03:11:05;;;;;;;0.80;0.80;;;;;;;9.77;74.39;99012.13;5033374;28;20222;-70
2023/11/06 03:13:32;;;;;;;1.43;1.00;;;;;;;9.76;74.36;99017.75;5045779;28;20224;-68
2023/11/06 03:16:00;;;;;;;1.27;0.90;;;;;;;9.73;74.24;99016.56;5032003;28;20262;-69
2023/11/06 03:18:26;;;;;;;3.23;1.00;;;;;;;9.72;74.80;99017.69;5037944;28;20293;-70
2023/11/06 03:20:53;;;;;;;1.73;1.20;;;;;;;9.71;74.39;99033.88;5033574;28;20211;-68
2023/11/06 03:23:19;;;;;;;2.23;0.90;;;;;;;9.66;76.73;99040.22;5034439;28;20210;-69
2023/11/06 03:25:45;;;;;;;2.20;1.10;;;;;;;9.62;76.68;99042.03;5030945;28;20812;-70
2023/11/06 03:28:11;;;;;;;3.23;0.90;;;;;;;9.59;75.72;99053.28;5032091;28;20229;-70
2023/11/06 03:30:39;;;;;;;1.37;1.03;;;;;;;9.56;75.72;99056.63;5047011;28;20220;-69
2023/11/06 03:33:07;;;;;;;0.90;0.90;;;;;;;9.54;76.67;99061.50;5031624;28;20213;-68
2023/11/06 03:35:35;;;;;;;1.63;0.90;;;;;;;9.53;75.88;99067.13;5030264;28;20229;-70
2023/11/06 03:38:01;;;;;;;1.33;1.00;;;;;;;9.49;76.25;99064.44;5043648;28;20301;-69
2023/11/06 03:40:27;;;;;;;1.57;0.90;;;;;;;9.50;76.89;99075.72;5031279;28;20210;-68
2023/11/06 03:42:54;;;;;;;0.97;0.80;;;;;;;9.48;76.78;99083.97;5048371;28;20209;-70
2023/11/06 03:45:20;;;;;;;1.43;0.80;;;;;;;9.49;76.94;99084.75;5050929;28;20228;-70
2023/11/06 03:47:46;;;;;;;0.97;0.80;;;;;;;9.47;76.47;99093.00;5052478;28;20326;-70
2023/11/06 03:50:14;;;;;;;1.00;0.80;;;;;;;9.44;77.66;99088.44;5046712;28;20570;-70
2023/11/06 03:52:41;;;;;;;1.00;0.90;;;;;;;9.44;77.51;99104.25;5050587;28;20215;-69
2023/11/06 03:55:08;;;;;;;1.17;0.70;;;;;;;9.42;76.92;99100.47;5048114;28;20224;-70
2023/11/06 03:57:34;;;;;;;1.23;0.80;;;;;;;9.41;77.20;99109.44;5052515;28;20219;-69
2023/11/06 04:00:01;;;;;;;2.33;0.90;;;;;;;9.40;77.25;99113.19;5046711;28;20221;-69
2023/11/06 04:02:27;;;;;;;2.70;0.90;;;;;;;9.37;77.73;99111.28;5049561;28;20211;-70
2023/11/06 04:04:53;;;;;;;5.07;1.03;;;;;;;9.35;78.23;99116.13;5051625;28;20384;-70
2023/11/06 04:07:21;;;;;;;0.83;0.70;;;;;;;9.31;77.79;99128.50;5050779;28;20695;-70
2023/11/06 04:09:47;;;;;;;0.70;0.60;;;;;;;9.27;78.55;99122.41;5052412;28;20212;-70
2023/11/06 04:12:13;;;;;;;1.33;0.90;;;;;;;9.23;78.32;99130.25;5046685;28;20247;-69
2023/11/06 04:14:40;;;;;;;1.20;1.00;;;;;;;9.20;78.34;99138.84;5050112;28;20233;-70
2023/11/06 04:17:06;;;;;;;1.77;0.93;;;;;;;9.19;78.81;99137.34;5047281;28;20219;-69
2023/11/06 04:19:32;;;;;;;4.73;0.80;;;;;;;9.22;78.65;99141.13;5049928;28;20226;-70
2023/11/06 04:21:59;;;;;;;1.57;0.80;;;;;;;9.25;79.67;99141.19;5050022;28;20204;-70
2023/11/06 04:24:27;;;;;;;1.17;0.83;;;;;;;9.31;78.31;99155.59;5051734;28;20251;-70
2023/11/06 04:26:53;;;;;;;1.57;0.83;;;;;;;9.37;78.58;99156.81;5055694;28;20263;-70
2023/11/06 04:29:19;;;;;;;1.63;0.90;;;;;;;9.42;79.89;99151.25;5048906;28;20209;-70
2023/11/06 04:31:46;;;;;;;1.00;0.90;;;;;;;9.50;79.82;99149.50;5054535;28;20218;-70
2023/11/06 04:34:12;;;;;;;0.60;0.60;;;;;;;9.55;78.27;99159.75;5051401;28;20230;-70
2023/11/06 04:36:38;;;;;;;3.53;0.93;;;;;;;9.58;79.43;99172.22;5053812;28;20214;-69
2023/11/06 04:39:05;;;;;;;0.93;0.70;;;;;;;9.63;79.22;99167.41;5053620;28;20211;-69
2023/11/06 04:41:33;;;;;;;1.73;0.80;;;;;;;9.67;78.10;99178.78;5052706;28;20231;-70
2023/11/06 04:43:59;;;;;;;3.10;0.80;;;;;;;9.73;78.37;99173.97;5053317;28;20276;-70
2023/11/06 04:46:26;;;;;;;1.63;1.00;;;;;;;9.78;77.07;99174.44;5054414;28;20206;-70
2023/11/06 04:48:53;;;;;;;1.97;0.70;;;;;;;9.84;77.95;99182.81;5054978;28;20229;-70
2023/11/06 04:51:19;;;;;;;2.43;0.80;;;;;;;9.87;77.76;99182.09;5052725;28;20215;-69
2023/11/06 04:53:45;;;;;;;0.60;0.60;;;;;;;9.90;77.16;99184.03;5057967;28;20199;-69
2023/11/06 04:56:12;;;;;;;1.73;0.90;;;;;;;9.94;77.37;99184.84;5055359;28;20571;-70
2023/11/06 04:58:40;;;;;;;1.03;0.70;;;;;;;9.98;77.38;99190.91;5051870;28;20217;-70
2023/11/06 05:01:07;;;;;;;0.90;0.80;;;;;;;10.00;76.47;99191.34;5049901;28;20201;-69
2023/11/06 05:03:34;;;;;;;0.87;0.80;;;;;;;10.03;79.30;99199.28;5046961;28;20553;-70
2023/11/06 05:06:00;;;;;;;1.90;1.80;;;;;;;10.05;76.51;99188.44;5052134;28;20689;-69
2023/11/06 05:08:28;;;;;;;0.83;0.80;;;;;;;10.09;77.61;99205.06;5055509;28;20214;-70
2023/11/06 05:10:55;;;;;;;1.27;0.97;;;;;;;10.10;76.65;99202.06;5052229;28;20203;-69
2023/11/06 05:13:22;;;;;;;1.47;0.80;;;;;;;10.11;76.88;99213.38;5050972;28;20275;-69
2023/11/06 05:15:49;;;;;;;2.00;0.77;;;;;;;10.11;76.77;99216.78;5055282;28;20600;-70
2023/11/06 05:18:16;;;;;;;1.20;1.00;;;;;;;10.14;78.31;99220.59;5052488;28;20670;-70
2023/11/06 05:20:43;;;;;;;1.07;0.87;;;;;;;10.14;76.25;99210.03;5048993;28;20565;-68
2023/11/06 05:23:09;;;;;;;3.57;1.10;;;;;;;10.13;75.83;99224.31;5051877;28;20213;-70
2023/11/06 05:25:36;;;;;;;0.83;0.70;;;;;;;10.13;76.96;99217.19;5053212;28;20581;-70
2023/11/06 05:28:02;;;;;;;3.60;0.90;;;;;;;10.15;78.34;99217.59;5048590;28;20206;-70
2023/11/06 05:30:29;;;;;;;0.93;0.90;;;;;;;10.13;77.12;99216.41;5054137;28;20221;-70
2023/11/06 05:32:58;;;;;;;0.90;0.90;;;;;;;10.10;75.59;99215.25;5052792;28;20219;-70
2023/11/06 05:35:24;;;;;;;1.07;0.80;;;;;;;10.06;75.60;99214.44;5053512;28;20270;-69
2023/11/06 05:37:52;;;;;;;1.30;0.80;;;;;;;10.04;76.28;99221.94;5051839;28;20218;-70
2023/11/06 05:40:18;;;;;;;1.67;0.97;;;;;;;10.01;76.20;99220.00;5053250;28;20215;-69
2023/11/06 05:42:44;;;;;;;0.80;0.80;;;;;;;10.03;78.81;99230.16;5052555;28;20935;-69
2023/11/06 05:45:11;;;;;;;4.60;1.30;;;;;;;10.03;77.05;99235.44;5048854;28;20225;-70
2023/11/06 05:47:37;;;;;;;1.10;0.80;;;;;;;10.04;77.89;99237.03;5051044;28;20210;-70
2023/11/06 05:50:06;;;;;;;2.60;0.70;;;;;;;10.06;76.81;99234.78;5048680;28;20290;-69
2023/11/06 05:52:33;;;;;;;1.90;0.90;;;;;;;10.06;76.69;99242.69;5047696;28;20607;-69
2023/11/06 05:54:59;;;;;;;1.57;0.73;;;;;;;10.06;78.09;99246.09;5046919;28;20223;-69
2023/11/06 05:57:26;;;;;;;4.17;0.90;;;;;;;10.09;76.42;99252.53;5054438;28;20211;-70
2023/11/06 05:59:52;;;;;;;1.73;0.90;;;;;;;10.11;77.41;99256.34;5052364;28;20214;-70
2023/11/06 06:02:19;;;;;;;1.47;0.70;;;;;;;10.12;76.02;99263.16;5048545;28;20621;-70
2023/11/06 06:04:45;;;;;;;1.43;0.80;;;;;;;10.14;77.32;99266.19;5051464;28;20222;-70
2023/11/06 06:07:13;;;;;;;1.90;1.07;;;;;;;10.16;78.75;99260.56;5055269;28;20207;-70
2023/11/06 06:09:41;;;;;;;2.20;0.90;;;;;;;10.17;76.71;99264.72;5050357;28;20203;-70
2023/11/06 06:12:08;;;;;;;1.30;0.90;;;;;;;10.20;76.39;99266.66;5048023;28;20234;-70
2023/11/06 06:14:35;;;;;;;1.30;0.93;;;;;;;10.21;76.01;99271.59;5048851;28;20231;-69
2023/11/06 06:17:02;;;;;;;2.00;0.80;;;;;;;10.24;76.27;99272.75;5034790;28;20218;-70
2023/11/06 06:19:28;;;;;;;3.17;0.80;;;;;;;10.24;76.04;99275.38;5052391;28;20211;-70
2023/11/06 06:21:55;;;;;;;1.50;1.00;;;;;;;10.25;76.47;99290.84;5045272;28;20210;-69
2023/11/06 06:24:23;;;;;;;1.57;0.83;;;;;;;10.28;76.18;99290.16;5046081;28;20607;-70
2023/11/06 06:26:49;;;;;;;3.00;0.70;;;;;;;10.29;75.76;99299.56;5044789;28;20281;-70
2023/11/06 06:29:15;;;;;;;3.50;0.80;;;;;;;10.30;77.50;99310.91;5048365;28;20199;-70
2023/11/06 06:31:42;;;;;;;2.70;0.90;;;;;;;10.32;75.71;99311.31;5049679;28;20296;-70
2023/11/06 06:34:08;;;;;;;1.90;0.73;;;;;;;10.32;76.13;99313.94;5029027;28;20622;-70
2023/11/06 06:36:34;;;;;;;1.03;1.03;;;;;;;10.32;74.60;99309.44;5054084;28;20207;-68
2023/11/06 06:39:05;;;;;;;1.30;0.87;;;;;;;10.34;74.76;99320.38;5055099;28;20207;-70
2023/11/06 06:41:32;;;;;;;0.60;0.50;;;;;;;10.36;77.64;99317.41;5051187;28;20203;-70
2023/11/06 06:43:59;;;;;;;2.87;1.17;;;;;;;10.36;76.96;99325.31;5050862;28;20230;-70
2023/11/06 06:46:25;;;;;;;0.97;0.57;;;;;;;10.37;76.13;99332.13;5049877;28;20200;-70
2023/11/06 06:48:51;;;;;;;1.07;0.73;;;;;;;10.39;77.13;99332.50;5051166;28;20302;-70
2023/11/06 06:51:18;;;;;;;2.87;0.80;;;;;;;10.41;78.03;99341.59;5051436;28;20277;-68
2023/11/06 06:53:46;;;;;;;1.83;0.90;;;;;;;10.43;75.95;99341.25;5052654;28;20203;-70
2023/11/06 06:56:13;;;;;;;2.70;1.10;;;;;;;10.45;75.68;99345.06;5049263;28;20203;-70
2023/11/06 06:58:42;;;;;;;2.37;0.80;;;;;;;10.46;74.10;99348.47;5046047;28;20208;-69
2023/11/06 07:01:09;;;;;;;2.67;1.27;;;;;;;10.48;76.79;99352.28;5047532;28;20213;-68
2023/11/06 07:03:36;;;;;;;3.33;0.90;;;;;;;10.50;77.07;99363.25;5051265;28;20212;-69
2023/11/06 07:06:06;;;;;;;1.13;0.77;;;;;;;10.51;75.41;99358.72;5050702;28;20293;-70
2023/11/06 07:08:33;;;;;;;1.73;0.63;;;;;;;10.54;78.16;99364.06;5050276;28;20235;-69
2023/11/06 07:10:59;;;;;;;2.47;1.00;;;;;;;10.55;74.54;99375.38;5051458;28;20796;-70
2023/11/06 07:13:25;;;;;;;2.10;0.97;;;;;;;10.54;76.41;99382.53;5050858;28;20233;-70
2023/11/06 07:15:53;;;;;;;2.73;0.90;;;;;;;10.55;75.85;99384.06;5055185;28;20226;-70
2023/11/06 07:18:19;;;;;;;1.43;1.33;;;;;;;10.58;75.06;99390.50;5055097;28;20212;-70
2023/11/06 07:20:46;;;;;;;1.73;0.60;;;;;;;10.58;75.38;99391.28;5053912;28;20207;-70
2023/11/06 07:23:12;;;;;;;7.50;1.10;;;;;;;10.60;77.58;99386.41;5057456;28;20210;-70
2023/11/06 07:25:38;;;;;;;2.40;1.27;;;;;;;10.62;75.79;99400.00;5057104;28;20263;-68
2023/11/06 07:28:05;;;;;;;2.17;0.60;;;;;;;10.62;75.70;99386.78;5052147;28;20470;-70
2023/11/06 07:30:31;;;;;;;1.90;0.97;;;;;;;10.66;75.85;99397.44;5053646;28;20478;-69
2023/11/06 07:32:59;;;;;;;1.87;1.00;;;;;;;10.67;76.10;99399.69;5039004;28;20223;-70
2023/11/06 07:35:25;;;;;;;2.10;0.67;;;;;;;10.70;76.22;99412.22;5030505;28;20573;-69
2023/11/06 07:37:51;;;;;;;2.17;1.10;;;;;;;10.72;75.14;99404.69;5052179;28;20234;-70
2023/11/06 07:40:18;;;;;;;1.70;0.80;;;;;;;10.76;78.05;99405.50;5053471;28;20549;-70
2023/11/06 07:42:45;;;;;;;2.27;0.87;;;;;;;10.79;75.04;99410.09;5055073;28;20695;-70
2023/11/06 07:45:11;;;;;;;1.50;0.90;;;;;;;10.82;75.05;99409.38;5055186;28;20641;-70
2023/11/06 07:47:39;;;;;;;1.30;0.70;;;;;;;10.84;74.56;99415.06;5057277;28;20746;-70
2023/11/06 07:50:08;;;;;;;0.93;0.80;;;;;;;10.88;76.72;99429.06;5055240;28;20294;-70
2023/11/06 07:52:35;;;;;;;2.10;1.40;;;;;;;10.93;74.91;99430.66;5055743;28;20290;-69
2023/11/06 07:55:03;;;;;;;2.20;0.90;;;;;;;10.96;74.73;99430.72;5056133;28;20753;-70
2023/11/06 07:57:30;;;;;;;4.80;0.73;;;;;;;11.01;75.28;99429.63;5051488;28;20230;-70
2023/11/06 07:59:56;;;;;;;2.83;0.93;;;;;;;11.05;75.78;99435.75;5056274;28;20749;-70
2023/11/06 08:02:22;;;;;;;1.00;0.60;;;;;;;11.11;76.48;99439.59;5054485;28;20217;-70
2023/11/06 08:04:49;;;;;;;2.23;0.70;;;;;;;11.15;73.95;99443.84;5052313;28;20637;-69
2023/11/06 08:07:17;;;;;;;1.23;0.83;;;;;;;11.21;76.46;99445.03;5041075;28;20263;-69
2023/11/06 08:09:44;;;;;;;1.97;0.80;;;;;;;11.26;75.34;99454.53;5055717;28;20217;-68
2023/11/06 08:12:12;;;;;;;1.10;0.73;;;;;;;11.31;74.52;99451.59;5053576;28;20271;-70
2023/11/06 08:14:38;;;;;;;1.10;0.90;;;;;;;11.36;74.53;99456.56;5052631;28;20255;-70
2023/11/06 08:17:04;;;;;;;1.13;0.80;;;;;;;11.42;75.23;99458.53;5053460;28;20562;-70
2023/11/06 08:19:31;;;;;;;2.73;0.90;;;;;;;11.45;72.99;99462.38;5055579;28;20234;-70
2023/11/06 08:21:57;;;;;;;2.67;1.40;;;;;;;11.50;74.38;99465.44;5053261;28;20222;-70
2023/11/06 08:24:25;;;;;;;1.60;0.90;;;;;;;11.56;73.52;99466.69;5053221;28;20328;-70
2023/11/06 08:26:52;;;;;;;2.13;0.90;;;;;;;11.63;73.35;99473.94;5052441;28;20255;-70
2023/11/06 08:29:18;;;;;;;4.27;2.10;;;;;;;11.69;72.92;99477.81;5056226;28;20195;-69
2023/11/06 08:31:45;;;;;;;4.07;1.20;;;;;;;11.76;72.82;99481.28;5051572;28;20202;-69
2023/11/06 08:34:12;;;;;;;1.80;0.70;;;;;;;11.79;72.69;99477.94;5053232;28;20225;-70
2023/11/06 08:36:43;;;;;;;3.60;0.80;;;;;;;11.85;75.34;99479.16;5054332;28;20214;-70
2023/11/06 08:39:09;;;;;;;1.27;0.83;;;;;;;11.89;75.29;99489.75;5055788;28;20670;-70
2023/11/06 08:41:37;;;;;;;2.53;0.73;;;;;;;11.93;75.03;99490.56;5053714;28;20585;-70
2023/11/06 08:44:04;;;;;;;2.07;0.80;;;;;;;11.97;73.58;99505.38;5054387;28;20229;-68
2023/11/06 08:46:30;;;;;;;1.33;0.80;;;;;;;12.00;74.84;99498.63;5053522;28;20214;-70
2023/11/06 08:48:57;;;;;;;1.07;0.70;;;;;;;12.00;73.05;99491.41;5055206;28;20207;-70
2023/11/06 08:51:23;;;;;;;0.73;0.57;;;;;;;12.05;75.96;99503.56;5051468;28;21558;-70
2023/11/06 08:53:49;;;;;;;1.50;0.60;;;;;;;12.07;72.07;99517.22;5055287;28;20223;-70
2023/11/06 08:56:20;;;;;;;2.07;0.80;;;;;;;12.10;74.01;99511.94;5053144;28;20198;-70
2023/11/06 08:58:48;;;;;;;4.13;1.00;;;;;;;12.11;72.36;99524.06;5053560;28;20203;-70
2023/11/06 09:01:14;;;;;;;2.67;0.80;;;;;;;12.10;72.11;99513.81;5053247;28;20210;-70
2023/11/06 09:03:42;;;;;;;1.03;0.50;;;;;;;12.11;71.13;99523.31;5052281;28;20210;-70
2023/11/06 09:06:10;;;;;;;2.30;1.13;;;;;;;12.13;71.70;99534.28;5052987;28;20245;-68
2023/11/06 09:08:36;;;;;;;1.27;0.83;;;;;;;12.13;71.70;99537.72;5052824;28;20259;-70
2023/11/06 09:11:03;;;;;;;4.10;0.70;;;;;;;12.17;71.67;99543.03;5057131;28;20206;-70
2023/11/06 09:13:35;;;;;;;1.40;0.83;;;;;;;12.18;71.67;99539.25;5050544;28;20604;-70
2023/11/06 09:16:04;;;;;;;6.90;0.70;;;;;;;12.25;71.92;99544.63;5056919;28;20206;-70
2023/11/06 09:18:30;;;;;;;1.20;0.67;;;;;;;12.29;71.67;99554.16;5054196;28;20264;-70
2023/11/06 09:20:56;;;;;;;1.97;0.80;;;;;;;12.34;71.54;99550.41;5055302;28;20199;-70
2023/11/06 09:23:23;;;;;;;0.90;0.60;;;;;;;12.37;73.25;99560.28;5055023;28;20202;-69
2023/11/06 09:25:50;;;;;;;3.97;1.00;;;;;;;12.40;72.34;99562.19;5054648;28;20885;-69
2023/11/06 09:28:16;;;;;;;2.80;1.00;;;;;;;12.41;70.62;99563.72;5057496;28;20191;-70
2023/11/06 09:30:43;;;;;;;2.00;0.60;;;;;;;12.43;70.29;99570.19;5055830;28;20246;-71
2023/11/06 09:33:11;;;;;;;3.07;1.43;;;;;;;12.44;70.78;99576.25;5050954;28;20242;-70
2023/11/06 09:35:37;;;;;;;2.73;0.90;;;;;;;12.46;71.30;99569.47;5056797;28;20632;-70
2023/11/06 09:38:04;;;;;;;2.97;1.17;;;;;;;12.46;70.42;99576.63;5056507;28;20217;-69
2023/11/06 09:40:30;;;;;;;1.47;1.00;;;;;;;12.48;69.64;99585.00;5057383;28;20744;-69
2023/11/06 09:42:57;;;;;;;2.67;1.73;;;;;;;12.50;70.44;99588.81;5056367;28;20198;-70
2023/11/06 09:45:23;;;;;;;6.70;1.20;;;;;;;12.56;72.41;99591.88;5052187;28;20230;-69
2023/11/06 09:47:52;;;;;;;1.97;0.90;;;;;;;12.62;70.54;99603.69;5055665;28;20203;-70
2023/11/06 09:50:22;;;;;;;5.40;0.70;;;;;;;12.63;71.92;99599.91;5058309;28;21662;-68
2023/11/06 09:52:49;;;;;;;1.67;0.93;;;;;;;12.67;71.51;99606.00;5058634;28;20225;-70
2023/11/06 09:55:18;;;;;;;3.43;1.17;;;;;;;12.71;70.16;99607.59;5057926;28;20307;-70
2023/11/06 09:57:45;;;;;;;3.67;0.70;;;;;;;12.76;70.31;99614.44;5056472;28;20206;-70
2023/11/06 10:00:14;;;;;;;1.67;0.80;;;;;;;12.82;72.23;99613.75;5056006;28;20202;-70
2023/11/06 10:02:40;;;;;;;2.13;0.77;;;;;;;12.86;71.26;99627.81;5052832;28;20219;-70
2023/11/06 10:05:12;;;;;;;2.77;0.50;;;;;;;12.86;71.40;99619.84;5057415;28;20743;-70
2023/11/06 10:07:40;;;;;;;0.63;0.60;;;;;;;12.83;68.87;99633.06;5057788;28;20432;-70
2023/11/06 10:10:15;;;;;;;2.53;0.77;;;;;;;12.88;69.94;99638.03;5055570;28;20206;-70
2023/11/06 10:12:41;;;;;;;4.13;2.37;;;;;;;12.89;70.86;99635.00;5056932;28;20596;-70
2023/11/06 10:15:11;;;;;;;2.53;2.17;;;;;;;12.92;68.98;99636.16;5049029;28;20226;-69
2023/11/06 10:17:38;;;;;;;2.87;2.40;;;;;;;12.93;69.14;99646.41;5056161;28;20264;-70
2023/11/06 10:20:07;;;;;;;2.03;1.20;;;;;;;12.95;70.34;99649.44;5053237;28;20210;-70
2023/11/06 10:22:32;;;;;;;3.23;0.60;;;;;;;12.96;69.79;99655.56;5057198;28;20522;-68
2023/11/06 10:25:00;;;;;;;2.63;0.70;;;;;;;12.91;68.57;99659.28;5053403;28;20726;-71
2023/11/06 10:27:29;;;;;;;0.77;0.60;;;;;;;12.89;68.69;99658.84;5056862;28;20234;-70
2023/11/06 10:29:59;;;;;;;2.17;0.63;;;;;;;12.89;71.29;99650.91;5057047;28;20198;-70
2023/11/06 10:32:27;;;;;;;1.30;0.70;;;;;;;12.88;69.19;99662.63;5056031;28;20580;-70
2023/11/06 10:34:53;;;;;;;2.63;0.60;;;;;;;12.93;73.16;99657.00;5056049;28;20646;-70
2023/11/06 10:37:26;;;;;;;5.70;0.70;;;;;;;12.95;69.79;99662.69;5051726;28;20195;-70
2023/11/06 10:39:54;;;;;;;1.00;0.60;;;;;;;12.98;68.85;99664.66;5053511;28;20229;-70
2023/11/06 10:42:22;;;;;;;4.20;0.70;;;;;;;13.03;68.24;99674.94;5052966;28;20211;-70
2023/11/06 10:44:56;;;;;;;3.03;0.63;;;;;;;12.99;69.75;99687.38;5056240;28;20242;-70
2023/11/06 10:47:26;;;;;;;1.93;0.70;;;;;;;12.91;69.30;99672.53;5052812;28;20332;-71
2023/11/06 10:49:57;;;;;;;1.73;0.50;;;;;;;12.91;69.83;99683.13;5052250;28;20223;-71
2023/11/06 10:52:26;;;;;;;0.80;0.60;;;;;;;12.84;70.82;99672.41;5053003;28;20290;-70
2023/11/06 10:54:54;;;;;;;1.30;0.47;;;;;;;12.82;71.14;99687.16;5054568;28;20249;-71
2023/11/06 10:57:22;;;;;;;0.40;0.40;;;;;;;12.80;72.15;99684.13;5055180;28;20210;-71
2023/11/06 10:59:51;;;;;;;1.27;0.50;;;;;;;12.82;69.59;99687.94;5053304;28;20206;-70
2023/11/06 11:02:34;;;;;;;1.70;0.47;;;;;;;12.78;69.40;99684.47;5037268;28;20665;-70
2023/11/06 11:05:02;;;;;;;1.57;0.73;;;;;;;12.82;72.22;99687.16;5056119;28;20232;-70
2023/11/06 11:07:30;;;;;;;0.93;0.60;;;;;;;12.84;69.93;99687.56;5053246;28;20211;-70
2023/11/06 11:09:57;;;;;;;1.20;0.67;;;;;;;12.87;71.61;99690.25;5052533;28;20265;-69
2023/11/06 11:12:25;;;;;;;0.77;0.57;;;;;;;12.97;69.60;99694.94;5051354;28;20203;-70
2023/11/06 11:14:51;;;;;;;1.70;0.80;;;;;;;13.09;72.63;99705.28;5052448;28;20437;-69
2023/11/06 11:17:19;;;;;;;1.90;0.83;;;;;;;13.20;68.56;99703.50;5053591;28;20199;-70
2023/11/06 11:19:54;;;;;;;3.50;0.67;;;;;;;13.24;69.07;99693.72;5050345;28;20256;-71
2023/11/06 11:22:21;;;;;;;2.23;0.67;;;;;;;13.26;67.43;99706.63;5049255;28;20559;-70
2023/11/06 11:24:52;;;;;;;1.27;0.60;;;;;;;13.26;67.53;99703.97;5049841;28;20263;-70
2023/11/06 11:27:21;;;;;;;2.33;0.67;;;;;;;13.29;67.61;99705.88;5049343;28;20298;-70
2023/11/06 11:30:12;;;;;;;1.00;0.50;;;;;;;13.35;66.66;99712.41;5055160;28;20297;-71
2023/11/06 11:32:50;;;;;;;2.20;0.50;;;;;;;13.37;67.72;99715.44;5053116;28;20655;-70
2023/11/06 11:35:48;;;;;;;1.70;0.70;;;;;;;13.34;67.88;99710.84;5049227;28;20233;-70